Unadilla, Nebraska
Current Conditions -  °F | °C
As of 11:15 PM on Saturday 25 Oct 2014 (Local Time) from KAFK Reporting Station
Clear Clear  
Wind Chill: 58°   Ceiling: Unl
Heat Index: 58°   Visibility: 10mi
Dew Point: 39°   Wind: 7mph
Humidity: 49%   Direction: 90°E
Pressure: 30.01"   Gusts: NA
Location:  40.68°N, 96.27°W
Report Text: KAFK 260415Z AUTO 09006KT 10SM CLR 15/04 A3001 RMK AO2 T01470040
Loading
Personal Weather Stations






























Interactive Weather Map
Tropical Storm Tracking
New forecast layout! Learn more

10-Day Weather Forecast

Advertisements
Track Severe Weather on mobile